sensor_id;sensor_type;location;lat;lon;timestamp;temperature;humidity
39023;DHT22;25908;51.984;5.928;2022-08-19T00:02:22;20.80;93.20
39023;DHT22;25908;51.984;5.928;2022-08-19T00:04:48;20.80;93.20
39023;DHT22;25908;51.984;5.928;2022-08-19T00:07:20;20.80;93.30
39023;DHT22;25908;51.984;5.928;2022-08-19T00:09:46;20.80;93.30
39023;DHT22;25908;51.984;5.928;2022-08-19T00:12:12;20.80;93.40
39023;DHT22;25908;51.984;5.928;2022-08-19T00:14:39;20.80;93.40
39023;DHT22;25908;51.984;5.928;2022-08-19T00:17:06;20.80;93.40
39023;DHT22;25908;51.984;5.928;2022-08-19T00:19:33;20.80;93.50
39023;DHT22;25908;51.984;5.928;2022-08-19T00:21:59;20.80;93.50
39023;DHT22;25908;51.984;5.928;2022-08-19T00:24:25;20.80;93.50
39023;DHT22;25908;51.984;5.928;2022-08-19T00:26:52;20.70;93.50
39023;DHT22;25908;51.984;5.928;2022-08-19T00:29:19;20.70;93.50
39023;DHT22;25908;51.984;5.928;2022-08-19T00:31:47;20.70;93.50
39023;DHT22;25908;51.984;5.928;2022-08-19T00:34:13;20.70;93.50
39023;DHT22;25908;51.984;5.928;2022-08-19T00:36:41;20.70;93.60
39023;DHT22;25908;51.984;5.928;2022-08-19T00:39:07;20.70;93.60
39023;DHT22;25908;51.984;5.928;2022-08-19T00:41:32;20.60;93.70
39023;DHT22;25908;51.984;5.928;2022-08-19T00:44:10;20.60;93.70
39023;DHT22;25908;51.984;5.928;2022-08-19T00:46:38;20.60;93.70
39023;DHT22;25908;51.984;5.928;2022-08-19T00:49:20;20.60;93.70
39023;DHT22;25908;51.984;5.928;2022-08-19T00:51:51;20.60;93.70
39023;DHT22;25908;51.984;5.928;2022-08-19T00:54:19;20.60;93.80
39023;DHT22;25908;51.984;5.928;2022-08-19T00:56:46;20.50;93.80
39023;DHT22;25908;51.984;5.928;2022-08-19T00:59:14;20.50;93.70
39023;DHT22;25908;51.984;5.928;2022-08-19T01:01:42;20.50;93.80
39023;DHT22;25908;51.984;5.928;2022-08-19T01:04:07;20.50;93.80
39023;DHT22;25908;51.984;5.928;2022-08-19T01:06:35;20.40;93.80
39023;DHT22;25908;51.984;5.928;2022-08-19T01:09:03;20.40;93.90
39023;DHT22;25908;51.984;5.928;2022-08-19T01:11:30;20.40;94.00
39023;DHT22;25908;51.984;5.928;2022-08-19T01:13:57;20.40;94.00
39023;DHT22;25908;51.984;5.928;2022-08-19T01:16:25;20.30;93.90
39023;DHT22;25908;51.984;5.928;2022-08-19T01:18:52;20.30;93.90
39023;DHT22;25908;51.984;5.928;2022-08-19T01:21:43;20.30;93.90
39023;DHT22;25908;51.984;5.928;2022-08-19T01:24:11;20.30;94.00
39023;DHT22;25908;51.984;5.928;2022-08-19T01:26:41;20.30;94.00
39023;DHT22;25908;51.984;5.928;2022-08-19T01:29:09;20.20;94.00
39023;DHT22;25908;51.984;5.928;2022-08-19T01:31:35;20.20;94.00
39023;DHT22;25908;51.984;5.928;2022-08-19T01:34:02;20.20;94.00
39023;DHT22;25908;51.984;5.928;2022-08-19T01:36:39;20.20;94.00
39023;DHT22;25908;51.984;5.928;2022-08-19T01:39:09;20.20;94.10
39023;DHT22;25908;51.984;5.928;2022-08-19T01:41:36;20.20;94.10
39023;DHT22;25908;51.984;5.928;2022-08-19T01:44:02;20.10;94.10
39023;DHT22;25908;51.984;5.928;2022-08-19T01:46:30;20.10;94.10
39023;DHT22;25908;51.984;5.928;2022-08-19T01:48:56;20.10;94.20
39023;DHT22;25908;51.984;5.928;2022-08-19T01:51:22;20.00;94.20
39023;DHT22;25908;51.984;5.928;2022-08-19T01:53:49;20.10;94.20
39023;DHT22;25908;51.984;5.928;2022-08-19T01:56:15;20.20;94.10
39023;DHT22;25908;51.984;5.928;2022-08-19T01:58:46;20.20;94.10
39023;DHT22;25908;51.984;5.928;2022-08-19T02:01:14;20.20;94.00
39023;DHT22;25908;51.984;5.928;2022-08-19T02:03:40;20.20;94.00
39023;DHT22;25908;51.984;5.928;2022-08-19T02:06:05;20.20;93.90
39023;DHT22;25908;51.984;5.928;2022-08-19T02:08:33;20.20;93.90
39023;DHT22;25908;51.984;5.928;2022-08-19T02:11:00;20.20;93.90
39023;DHT22;25908;51.984;5.928;2022-08-19T02:13:26;20.20;93.90
39023;DHT22;25908;51.984;5.928;2022-08-19T02:15:52;20.20;94.10
39023;DHT22;25908;51.984;5.928;2022-08-19T02:18:17;20.30;93.80
39023;DHT22;25908;51.984;5.928;2022-08-19T02:20:44;20.30;93.80
39023;DHT22;25908;51.984;5.928;2022-08-19T02:23:11;20.30;93.70
39023;DHT22;25908;51.984;5.928;2022-08-19T02:25:37;20.30;93.60
39023;DHT22;25908;51.984;5.928;2022-08-19T02:28:03;20.30;93.60
39023;DHT22;25908;51.984;5.928;2022-08-19T02:30:29;20.30;93.60
39023;DHT22;25908;51.984;5.928;2022-08-19T02:32:55;20.20;93.50
39023;DHT22;25908;51.984;5.928;2022-08-19T02:35:21;20.30;93.60
39023;DHT22;25908;51.984;5.928;2022-08-19T02:37:47;20.20;93.70
39023;DHT22;25908;51.984;5.928;2022-08-19T02:40:32;20.20;93.80
39023;DHT22;25908;51.984;5.928;2022-08-19T02:43:05;20.10;93.70
39023;DHT22;25908;51.984;5.928;2022-08-19T02:45:34;20.10;93.70
39023;DHT22;25908;51.984;5.928;2022-08-19T02:48:00;20.10;93.80
39023;DHT22;25908;51.984;5.928;2022-08-19T02:50:26;20.10;93.80
39023;DHT22;25908;51.984;5.928;2022-08-19T02:52:51;20.10;93.80
39023;DHT22;25908;51.984;5.928;2022-08-19T02:55:17;20.10;93.80
39023;DHT22;25908;51.984;5.928;2022-08-19T02:57:42;20.10;93.80
39023;DHT22;25908;51.984;5.928;2022-08-19T03:00:09;20.00;93.80
39023;DHT22;25908;51.984;5.928;2022-08-19T03:02:38;20.00;93.80
39023;DHT22;25908;51.984;5.928;2022-08-19T03:05:05;20.00;93.70
39023;DHT22;25908;51.984;5.928;2022-08-19T03:07:32;20.00;93.80
39023;DHT22;25908;51.984;5.928;2022-08-19T03:09:58;19.90;93.80
39023;DHT22;25908;51.984;5.928;2022-08-19T03:12:23;19.90;93.90
39023;DHT22;25908;51.984;5.928;2022-08-19T03:14:49;19.80;93.90
39023;DHT22;25908;51.984;5.928;2022-08-19T03:17:16;19.80;93.90
39023;DHT22;25908;51.984;5.928;2022-08-19T03:19:41;19.80;93.90
39023;DHT22;25908;51.984;5.928;2022-08-19T03:22:08;19.80;93.80
39023;DHT22;25908;51.984;5.928;2022-08-19T03:24:34;19.80;93.80
39023;DHT22;25908;51.984;5.928;2022-08-19T03:27:00;19.70;93.90
39023;DHT22;25908;51.984;5.928;2022-08-19T03:29:28;19.70;93.90
39023;DHT22;25908;51.984;5.928;2022-08-19T03:31:54;19.70;93.90
39023;DHT22;25908;51.984;5.928;2022-08-19T03:34:23;19.60;94.00
39023;DHT22;25908;51.984;5.928;2022-08-19T03:36:52;19.60;94.10
39023;DHT22;25908;51.984;5.928;2022-08-19T03:39:19;19.60;94.20
39023;DHT22;25908;51.984;5.928;2022-08-19T03:41:47;19.60;94.30
39023;DHT22;25908;51.984;5.928;2022-08-19T03:44:13;19.60;94.30
39023;DHT22;25908;51.984;5.928;2022-08-19T03:46:39;19.50;94.20
39023;DHT22;25908;51.984;5.928;2022-08-19T03:49:04;19.50;94.50
39023;DHT22;25908;51.984;5.928;2022-08-19T03:51:36;19.40;94.20
39023;DHT22;25908;51.984;5.928;2022-08-19T03:54:07;19.40;94.20
39023;DHT22;25908;51.984;5.928;2022-08-19T03:56:34;19.40;94.30
39023;DHT22;25908;51.984;5.928;2022-08-19T03:59:00;19.40;94.40
39023;DHT22;25908;51.984;5.928;2022-08-19T04:01:28;19.40;94.40
39023;DHT22;25908;51.984;5.928;2022-08-19T04:03:55;19.30;94.50
39023;DHT22;25908;51.984;5.928;2022-08-19T04:06:25;19.30;94.50
39023;DHT22;25908;51.984;5.928;2022-08-19T04:08:53;19.30;94.40
39023;DHT22;25908;51.984;5.928;2022-08-19T04:11:28;19.30;94.40
39023;DHT22;25908;51.984;5.928;2022-08-19T04:13:54;19.30;94.50
39023;DHT22;25908;51.984;5.928;2022-08-19T04:16:22;19.30;94.70
39023;DHT22;25908;51.984;5.928;2022-08-19T04:18:49;19.20;94.70
39023;DHT22;25908;51.984;5.928;2022-08-19T04:21:21;19.20;94.70
39023;DHT22;25908;51.984;5.928;2022-08-19T04:23:47;19.20;94.80
39023;DHT22;25908;51.984;5.928;2022-08-19T04:26:18;19.20;94.70
39023;DHT22;25908;51.984;5.928;2022-08-19T04:28:45;19.20;94.70
39023;DHT22;25908;51.984;5.928;2022-08-19T04:31:16;19.20;94.60
39023;DHT22;25908;51.984;5.928;2022-08-19T04:33:42;19.10;94.50
39023;DHT22;25908;51.984;5.928;2022-08-19T04:36:15;19.20;94.50
39023;DHT22;25908;51.984;5.928;2022-08-19T04:38:41;19.10;94.50
39023;DHT22;25908;51.984;5.928;2022-08-19T04:41:07;19.10;94.50
39023;DHT22;25908;51.984;5.928;2022-08-19T04:43:51;19.10;94.50
39023;DHT22;25908;51.984;5.928;2022-08-19T04:46:16;19.00;94.40
39023;DHT22;25908;51.984;5.928;2022-08-19T04:48:42;19.00;94.50
39023;DHT22;25908;51.984;5.928;2022-08-19T04:51:11;19.00;94.60
39023;DHT22;25908;51.984;5.928;2022-08-19T04:53:39;19.00;94.60
39023;DHT22;25908;51.984;5.928;2022-08-19T04:56:08;19.00;94.50
39023;DHT22;25908;51.984;5.928;2022-08-19T04:58:35;19.00;94.50
39023;DHT22;25908;51.984;5.928;2022-08-19T05:01:01;19.00;94.50
39023;DHT22;25908;51.984;5.928;2022-08-19T05:03:27;19.00;94.60
39023;DHT22;25908;51.984;5.928;2022-08-19T05:06:04;19.00;94.70
39023;DHT22;25908;51.984;5.928;2022-08-19T05:08:29;19.00;94.70
39023;DHT22;25908;51.984;5.928;2022-08-19T05:10:56;18.90;94.60
39023;DHT22;25908;51.984;5.928;2022-08-19T05:13:22;18.90;94.60
39023;DHT22;25908;51.984;5.928;2022-08-19T05:15:56;18.90;94.60
39023;DHT22;25908;51.984;5.928;2022-08-19T05:18:22;18.90;94.60
39023;DHT22;25908;51.984;5.928;2022-08-19T05:21:08;19.00;94.70
39023;DHT22;25908;51.984;5.928;2022-08-19T05:23:53;18.90;94.80
39023;DHT22;25908;51.984;5.928;2022-08-19T05:26:18;19.00;94.90
39023;DHT22;25908;51.984;5.928;2022-08-19T05:28:44;18.90;94.80
39023;DHT22;25908;51.984;5.928;2022-08-19T05:31:10;19.00;94.90
39023;DHT22;25908;51.984;5.928;2022-08-19T05:33:35;19.00;94.90
39023;DHT22;25908;51.984;5.928;2022-08-19T05:36:02;19.00;95.10
39023;DHT22;25908;51.984;5.928;2022-08-19T05:38:28;19.00;95.30
39023;DHT22;25908;51.984;5.928;2022-08-19T05:40:55;19.00;95.40
39023;DHT22;25908;51.984;5.928;2022-08-19T05:43:20;19.10;95.40
39023;DHT22;25908;51.984;5.928;2022-08-19T05:45:46;19.10;95.40
39023;DHT22;25908;51.984;5.928;2022-08-19T05:48:12;19.20;95.30
39023;DHT22;25908;51.984;5.928;2022-08-19T05:50:40;19.20;95.30
39023;DHT22;25908;51.984;5.928;2022-08-19T05:53:07;19.20;95.40
39023;DHT22;25908;51.984;5.928;2022-08-19T05:55:34;19.30;95.70
39023;DHT22;25908;51.984;5.928;2022-08-19T05:58:00;19.30;95.70
39023;DHT22;25908;51.984;5.928;2022-08-19T06:00:27;19.40;95.80
39023;DHT22;25908;51.984;5.928;2022-08-19T06:02:52;19.40;95.80
39023;DHT22;25908;51.984;5.928;2022-08-19T06:05:19;19.50;95.80
39023;DHT22;25908;51.984;5.928;2022-08-19T06:07:45;19.60;95.90
39023;DHT22;25908;51.984;5.928;2022-08-19T06:10:11;19.60;96.00
39023;DHT22;25908;51.984;5.928;2022-08-19T06:12:37;19.70;96.00
39023;DHT22;25908;51.984;5.928;2022-08-19T06:15:11;19.70;96.10
39023;DHT22;25908;51.984;5.928;2022-08-19T06:17:38;19.80;96.20
39023;DHT22;25908;51.984;5.928;2022-08-19T06:20:08;20.00;96.20
39023;DHT22;25908;51.984;5.928;2022-08-19T06:22:43;20.10;96.00
39023;DHT22;25908;51.984;5.928;2022-08-19T06:25:10;20.30;95.80
39023;DHT22;25908;51.984;5.928;2022-08-19T06:27:36;20.50;95.40
39023;DHT22;25908;51.984;5.928;2022-08-19T06:30:03;20.70;95.10
39023;DHT22;25908;51.984;5.928;2022-08-19T06:32:29;20.90;95.00
39023;DHT22;25908;51.984;5.928;2022-08-19T06:34:55;21.10;94.40
39023;DHT22;25908;51.984;5.928;2022-08-19T06:37:21;21.30;94.20
39023;DHT22;25908;51.984;5.928;2022-08-19T06:39:47;21.40;93.90
39023;DHT22;25908;51.984;5.928;2022-08-19T06:42:13;21.60;93.90
39023;DHT22;25908;51.984;5.928;2022-08-19T06:44:42;21.90;93.40
39023;DHT22;25908;51.984;5.928;2022-08-19T06:47:10;22.10;93.00
39023;DHT22;25908;51.984;5.928;2022-08-19T06:49:36;22.30;93.00
39023;DHT22;25908;51.984;5.928;2022-08-19T06:52:03;22.60;92.20
39023;DHT22;25908;51.984;5.928;2022-08-19T06:54:29;22.70;92.00
39023;DHT22;25908;51.984;5.928;2022-08-19T06:56:56;22.80;91.80
39023;DHT22;25908;51.984;5.928;2022-08-19T06:59:23;22.80;91.60
39023;DHT22;25908;51.984;5.928;2022-08-19T07:01:54;22.60;91.60
39023;DHT22;25908;51.984;5.928;2022-08-19T07:04:23;22.40;92.00
39023;DHT22;25908;51.984;5.928;2022-08-19T07:06:50;22.30;92.20
39023;DHT22;25908;51.984;5.928;2022-08-19T07:09:18;22.30;92.20
39023;DHT22;25908;51.984;5.928;2022-08-19T07:11:45;22.30;92.20
39023;DHT22;25908;51.984;5.928;2022-08-19T07:14:12;22.40;92.20
39023;DHT22;25908;51.984;5.928;2022-08-19T07:16:37;22.40;92.00
39023;DHT22;25908;51.984;5.928;2022-08-19T07:19:03;22.40;91.90
39023;DHT22;25908;51.984;5.928;2022-08-19T07:21:28;22.20;92.00
39023;DHT22;25908;51.984;5.928;2022-08-19T07:23:55;22.10;92.20
39023;DHT22;25908;51.984;5.928;2022-08-19T07:26:30;22.10;92.10
39023;DHT22;25908;51.984;5.928;2022-08-19T07:28:56;22.00;92.40
39023;DHT22;25908;51.984;5.928;2022-08-19T07:31:24;22.00;92.60
39023;DHT22;25908;51.984;5.928;2022-08-19T07:33:52;22.00;92.60
39023;DHT22;25908;51.984;5.928;2022-08-19T07:36:21;22.00;92.30
39023;DHT22;25908;51.984;5.928;2022-08-19T07:38:49;21.90;92.70
39023;DHT22;25908;51.984;5.928;2022-08-19T07:41:19;22.00;92.90
39023;DHT22;25908;51.984;5.928;2022-08-19T07:43:45;22.10;92.70
39023;DHT22;25908;51.984;5.928;2022-08-19T07:46:11;22.20;92.40
39023;DHT22;25908;51.984;5.928;2022-08-19T07:48:43;22.40;92.40
39023;DHT22;25908;51.984;5.928;2022-08-19T07:51:11;22.50;92.30
39023;DHT22;25908;51.984;5.928;2022-08-19T07:53:37;22.70;92.00
39023;DHT22;25908;51.984;5.928;2022-08-19T07:56:04;22.80;91.10
39023;DHT22;25908;51.984;5.928;2022-08-19T07:58:32;22.70;90.90
39023;DHT22;25908;51.984;5.928;2022-08-19T08:00:58;22.80;91.00
39023;DHT22;25908;51.984;5.928;2022-08-19T08:03:23;23.00;90.80
39023;DHT22;25908;51.984;5.928;2022-08-19T08:06:08;23.10;90.60
39023;DHT22;25908;51.984;5.928;2022-08-19T08:08:52;23.30;90.50
39023;DHT22;25908;51.984;5.928;2022-08-19T08:11:41;23.40;90.00
39023;DHT22;25908;51.984;5.928;2022-08-19T08:14:07;23.50;90.10
39023;DHT22;25908;51.984;5.928;2022-08-19T08:16:36;23.60;89.00
39023;DHT22;25908;51.984;5.928;2022-08-19T08:19:04;23.80;89.10
39023;DHT22;25908;51.984;5.928;2022-08-19T08:21:30;24.20;88.60
39023;DHT22;25908;51.984;5.928;2022-08-19T08:23:56;24.60;86.80
39023;DHT22;25908;51.984;5.928;2022-08-19T08:26:22;24.90;84.70
39023;DHT22;25908;51.984;5.928;2022-08-19T08:28:48;25.20;83.60
39023;DHT22;25908;51.984;5.928;2022-08-19T08:31:14;25.30;82.10
39023;DHT22;25908;51.984;5.928;2022-08-19T08:33:40;25.30;82.20
39023;DHT22;25908;51.984;5.928;2022-08-19T08:36:08;25.30;82.70
39023;DHT22;25908;51.984;5.928;2022-08-19T08:38:34;25.50;82.00
39023;DHT22;25908;51.984;5.928;2022-08-19T08:41:17;25.60;81.60
39023;DHT22;25908;51.984;5.928;2022-08-19T08:43:46;25.90;81.20
39023;DHT22;25908;51.984;5.928;2022-08-19T08:49:04;26.50;77.70
39023;DHT22;25908;51.984;5.928;2022-08-19T08:51:42;26.70;76.60
39023;DHT22;25908;51.984;5.928;2022-08-19T08:54:11;27.10;74.90
39023;DHT22;25908;51.984;5.928;2022-08-19T08:56:39;27.30;73.00
39023;DHT22;25908;51.984;5.928;2022-08-19T08:59:10;27.50;72.90
39023;DHT22;25908;51.984;5.928;2022-08-19T09:01:38;27.60;71.90
39023;DHT22;25908;51.984;5.928;2022-08-19T09:04:07;27.60;71.10
39023;DHT22;25908;51.984;5.928;2022-08-19T09:09:37;28.00;71.50
39023;DHT22;25908;51.984;5.928;2022-08-19T09:14:55;28.40;69.00
39023;DHT22;25908;51.984;5.928;2022-08-19T09:17:25;28.50;68.10
39023;DHT22;25908;51.984;5.928;2022-08-19T09:20:08;28.60;68.30
39023;DHT22;25908;51.984;5.928;2022-08-19T09:22:41;28.80;67.40
39023;DHT22;25908;51.984;5.928;2022-08-19T09:25:10;28.90;66.70
39023;DHT22;25908;51.984;5.928;2022-08-19T09:27:38;29.00;66.70
39023;DHT22;25908;51.984;5.928;2022-08-19T09:30:05;29.10;66.70
39023;DHT22;25908;51.984;5.928;2022-08-19T09:32:31;29.10;66.20
39023;DHT22;25908;51.984;5.928;2022-08-19T09:34:56;29.10;66.70
39023;DHT22;25908;51.984;5.928;2022-08-19T09:37:24;28.90;66.70
39023;DHT22;25908;51.984;5.928;2022-08-19T09:39:50;28.70;67.40
39023;DHT22;25908;51.984;5.928;2022-08-19T09:42:15;28.50;67.90
39023;DHT22;25908;51.984;5.928;2022-08-19T09:44:41;28.40;68.10
39023;DHT22;25908;51.984;5.928;2022-08-19T09:47:08;28.20;68.70
39023;DHT22;25908;51.984;5.928;2022-08-19T09:49:34;28.00;69.80
39023;DHT22;25908;51.984;5.928;2022-08-19T09:52:00;28.00;70.20
39023;DHT22;25908;51.984;5.928;2022-08-19T09:54:26;27.90;70.60
39023;DHT22;25908;51.984;5.928;2022-08-19T09:56:53;27.80;70.60
39023;DHT22;25908;51.984;5.928;2022-08-19T09:59:19;27.90;70.80
39023;DHT22;25908;51.984;5.928;2022-08-19T10:01:45;28.00;69.40
39023;DHT22;25908;51.984;5.928;2022-08-19T10:04:11;27.90;69.80
39023;DHT22;25908;51.984;5.928;2022-08-19T10:06:38;28.00;69.70
39023;DHT22;25908;51.984;5.928;2022-08-19T10:09:06;28.10;69.60
39023;DHT22;25908;51.984;5.928;2022-08-19T10:11:33;28.20;69.30
39023;DHT22;25908;51.984;5.928;2022-08-19T10:14:01;28.30;68.60
39023;DHT22;25908;51.984;5.928;2022-08-19T10:16:27;28.30;68.50
39023;DHT22;25908;51.984;5.928;2022-08-19T10:18:53;28.40;67.50
39023;DHT22;25908;51.984;5.928;2022-08-19T10:21:22;28.30;67.70
39023;DHT22;25908;51.984;5.928;2022-08-19T10:23:51;28.20;67.70
39023;DHT22;25908;51.984;5.928;2022-08-19T10:26:20;28.20;67.90
39023;DHT22;25908;51.984;5.928;2022-08-19T10:28:46;28.20;67.00
39023;DHT22;25908;51.984;5.928;2022-08-19T10:31:15;28.10;66.80
39023;DHT22;25908;51.984;5.928;2022-08-19T10:33:42;28.00;66.80
39023;DHT22;25908;51.984;5.928;2022-08-19T10:36:12;28.00;67.10
39023;DHT22;25908;51.984;5.928;2022-08-19T10:38:41;28.00;66.50
39023;DHT22;25908;51.984;5.928;2022-08-19T10:41:13;28.00;68.00
39023;DHT22;25908;51.984;5.928;2022-08-19T10:43:40;28.10;67.60
39023;DHT22;25908;51.984;5.928;2022-08-19T10:46:12;28.30;66.60
39023;DHT22;25908;51.984;5.928;2022-08-19T10:48:38;28.30;67.00
39023;DHT22;25908;51.984;5.928;2022-08-19T10:51:04;28.30;66.40
39023;DHT22;25908;51.984;5.928;2022-08-19T10:53:49;28.20;66.70
39023;DHT22;25908;51.984;5.928;2022-08-19T10:56:15;27.90;65.90
39023;DHT22;25908;51.984;5.928;2022-08-19T10:58:59;27.70;67.20
39023;DHT22;25908;51.984;5.928;2022-08-19T11:01:26;27.70;68.40
39023;DHT22;25908;51.984;5.928;2022-08-19T11:03:52;27.80;67.10
39023;DHT22;25908;51.984;5.928;2022-08-19T11:06:18;27.80;67.10
39023;DHT22;25908;51.984;5.928;2022-08-19T11:08:44;27.90;67.40
39023;DHT22;25908;51.984;5.928;2022-08-19T11:11:10;27.80;66.90
39023;DHT22;25908;51.984;5.928;2022-08-19T11:13:38;27.70;67.50
39023;DHT22;25908;51.984;5.928;2022-08-19T11:16:08;27.60;67.50
39023;DHT22;25908;51.984;5.928;2022-08-19T11:18:36;27.50;68.00
39023;DHT22;25908;51.984;5.928;2022-08-19T11:21:07;27.50;68.70
39023;DHT22;25908;51.984;5.928;2022-08-19T11:23:33;27.60;69.30
39023;DHT22;25908;51.984;5.928;2022-08-19T11:25:58;27.70;67.90
39023;DHT22;25908;51.984;5.928;2022-08-19T11:28:25;27.80;67.70
39023;DHT22;25908;51.984;5.928;2022-08-19T11:30:50;27.80;67.80
39023;DHT22;25908;51.984;5.928;2022-08-19T11:33:16;27.90;67.50
39023;DHT22;25908;51.984;5.928;2022-08-19T11:35:41;27.90;68.30
39023;DHT22;25908;51.984;5.928;2022-08-19T11:38:07;28.00;67.90
39023;DHT22;25908;51.984;5.928;2022-08-19T11:40:32;28.00;67.80
39023;DHT22;25908;51.984;5.928;2022-08-19T11:42:58;27.90;66.90
39023;DHT22;25908;51.984;5.928;2022-08-19T11:45:25;27.90;66.80
39023;DHT22;25908;51.984;5.928;2022-08-19T11:47:52;27.80;66.40
39023;DHT22;25908;51.984;5.928;2022-08-19T11:50:17;27.90;67.00
39023;DHT22;25908;51.984;5.928;2022-08-19T11:52:44;27.90;66.70
39023;DHT22;25908;51.984;5.928;2022-08-19T11:55:11;28.00;66.60
39023;DHT22;25908;51.984;5.928;2022-08-19T11:57:37;28.10;66.10
39023;DHT22;25908;51.984;5.928;2022-08-19T12:00:04;28.00;66.00
39023;DHT22;25908;51.984;5.928;2022-08-19T12:02:31;28.10;66.30
39023;DHT22;25908;51.984;5.928;2022-08-19T12:04:57;28.00;65.80
39023;DHT22;25908;51.984;5.928;2022-08-19T12:07:22;27.80;67.20
39023;DHT22;25908;51.984;5.928;2022-08-19T12:09:48;27.70;66.50
39023;DHT22;25908;51.984;5.928;2022-08-19T12:12:13;27.60;67.70
39023;DHT22;25908;51.984;5.928;2022-08-19T12:14:39;27.50;67.70
39023;DHT22;25908;51.984;5.928;2022-08-19T12:17:04;27.50;67.00
39023;DHT22;25908;51.984;5.928;2022-08-19T12:19:33;27.50;66.80
39023;DHT22;25908;51.984;5.928;2022-08-19T12:22:00;27.50;67.00
39023;DHT22;25908;51.984;5.928;2022-08-19T12:24:31;27.50;67.60
39023;DHT22;25908;51.984;5.928;2022-08-19T12:26:57;27.60;67.80
39023;DHT22;25908;51.984;5.928;2022-08-19T12:29:24;27.60;67.90
39023;DHT22;25908;51.984;5.928;2022-08-19T12:31:55;27.70;68.20
39023;DHT22;25908;51.984;5.928;2022-08-19T12:34:27;27.70;68.20
39023;DHT22;25908;51.984;5.928;2022-08-19T12:37:00;27.70;68.00
39023;DHT22;25908;51.984;5.928;2022-08-19T12:39:26;27.70;68.20
39023;DHT22;25908;51.984;5.928;2022-08-19T12:41:52;27.60;67.80
39023;DHT22;25908;51.984;5.928;2022-08-19T12:44:18;27.40;68.80
39023;DHT22;25908;51.984;5.928;2022-08-19T12:46:44;27.30;69.30
39023;DHT22;25908;51.984;5.928;2022-08-19T12:49:10;27.20;69.30
39023;DHT22;25908;51.984;5.928;2022-08-19T12:51:35;27.20;69.20
39023;DHT22;25908;51.984;5.928;2022-08-19T12:54:02;27.10;69.80
39023;DHT22;25908;51.984;5.928;2022-08-19T12:56:28;27.00;70.50
39023;DHT22;25908;51.984;5.928;2022-08-19T12:58:54;27.00;70.30
39023;DHT22;25908;51.984;5.928;2022-08-19T13:01:20;27.10;70.40
39023;DHT22;25908;51.984;5.928;2022-08-19T13:03:46;27.10;70.30
39023;DHT22;25908;51.984;5.928;2022-08-19T13:06:12;27.00;69.70
39023;DHT22;25908;51.984;5.928;2022-08-19T13:08:38;27.00;70.60
39023;DHT22;25908;51.984;5.928;2022-08-19T13:11:15;27.00;70.70
39023;DHT22;25908;51.984;5.928;2022-08-19T13:13:43;27.00;70.80
39023;DHT22;25908;51.984;5.928;2022-08-19T13:16:11;27.00;71.10
39023;DHT22;25908;51.984;5.928;2022-08-19T13:18:37;27.10;71.30
39023;DHT22;25908;51.984;5.928;2022-08-19T13:21:05;27.10;70.90
39023;DHT22;25908;51.984;5.928;2022-08-19T13:23:32;27.10;70.80
39023;DHT22;25908;51.984;5.928;2022-08-19T13:26:05;27.10;70.90
39023;DHT22;25908;51.984;5.928;2022-08-19T13:28:31;27.10;70.80
39023;DHT22;25908;51.984;5.928;2022-08-19T13:31:18;27.10;71.20
39023;DHT22;25908;51.984;5.928;2022-08-19T13:34:03;27.10;71.40
39023;DHT22;25908;51.984;5.928;2022-08-19T13:36:31;27.10;71.80
39023;DHT22;25908;51.984;5.928;2022-08-19T13:38:57;27.10;71.50
39023;DHT22;25908;51.984;5.928;2022-08-19T13:41:23;27.10;71.50
39023;DHT22;25908;51.984;5.928;2022-08-19T13:43:48;27.10;71.20
39023;DHT22;25908;51.984;5.928;2022-08-19T13:46:15;27.20;71.10
39023;DHT22;25908;51.984;5.928;2022-08-19T13:48:41;27.20;70.40
39023;DHT22;25908;51.984;5.928;2022-08-19T13:51:08;27.10;70.60
39023;DHT22;25908;51.984;5.928;2022-08-19T13:53:36;27.10;70.90
39023;DHT22;25908;51.984;5.928;2022-08-19T13:56:05;27.10;71.60
39023;DHT22;25908;51.984;5.928;2022-08-19T13:58:31;27.20;70.90
39023;DHT22;25908;51.984;5.928;2022-08-19T14:00:56;27.10;71.10
39023;DHT22;25908;51.984;5.928;2022-08-19T14:03:24;27.20;70.80
39023;DHT22;25908;51.984;5.928;2022-08-19T14:05:50;27.10;71.30
39023;DHT22;25908;51.984;5.928;2022-08-19T14:08:16;27.10;71.50
39023;DHT22;25908;51.984;5.928;2022-08-19T14:10:42;27.10;72.00
39023;DHT22;25908;51.984;5.928;2022-08-19T14:13:12;27.00;71.90
39023;DHT22;25908;51.984;5.928;2022-08-19T14:15:38;27.10;72.00
39023;DHT22;25908;51.984;5.928;2022-08-19T14:18:03;27.10;72.20
39023;DHT22;25908;51.984;5.928;2022-08-19T14:20:29;27.10;72.60
39023;DHT22;25908;51.984;5.928;2022-08-19T14:22:55;27.20;72.70
39023;DHT22;25908;51.984;5.928;2022-08-19T14:25:26;27.00;72.60
39023;DHT22;25908;51.984;5.928;2022-08-19T14:27:52;26.90;73.10
39023;DHT22;25908;51.984;5.928;2022-08-19T14:30:29;26.90;73.50
39023;DHT22;25908;51.984;5.928;2022-08-19T14:32:56;26.90;73.50
39023;DHT22;25908;51.984;5.928;2022-08-19T14:35:23;26.90;73.10
39023;DHT22;25908;51.984;5.928;2022-08-19T14:37:49;26.90;73.50
39023;DHT22;25908;51.984;5.928;2022-08-19T14:40:18;26.90;73.80
39023;DHT22;25908;51.984;5.928;2022-08-19T14:42:47;26.90;73.80
39023;DHT22;25908;51.984;5.928;2022-08-19T14:45:13;26.90;73.90
39023;DHT22;25908;51.984;5.928;2022-08-19T14:47:39;27.00;73.60
39023;DHT22;25908;51.984;5.928;2022-08-19T14:50:07;26.90;73.60
39023;DHT22;25908;51.984;5.928;2022-08-19T14:52:33;26.80;74.00
39023;DHT22;25908;51.984;5.928;2022-08-19T14:54:59;26.80;74.30
39023;DHT22;25908;51.984;5.928;2022-08-19T14:57:25;26.70;74.40
39023;DHT22;25908;51.984;5.928;2022-08-19T14:59:50;26.50;74.40
39023;DHT22;25908;51.984;5.928;2022-08-19T15:02:16;26.40;74.70
39023;DHT22;25908;51.984;5.928;2022-08-19T15:04:41;26.40;75.20
39023;DHT22;25908;51.984;5.928;2022-08-19T15:07:07;26.30;75.40
39023;DHT22;25908;51.984;5.928;2022-08-19T15:09:33;26.30;75.80
39023;DHT22;25908;51.984;5.928;2022-08-19T15:11:59;26.20;75.80
39023;DHT22;25908;51.984;5.928;2022-08-19T15:14:26;26.20;76.30
39023;DHT22;25908;51.984;5.928;2022-08-19T15:16:53;26.20;75.90
39023;DHT22;25908;51.984;5.928;2022-08-19T15:19:19;26.10;76.00
39023;DHT22;25908;51.984;5.928;2022-08-19T15:21:45;26.10;76.30
39023;DHT22;25908;51.984;5.928;2022-08-19T15:24:11;26.00;77.10
39023;DHT22;25908;51.984;5.928;2022-08-19T15:26:36;26.00;76.40
39023;DHT22;25908;51.984;5.928;2022-08-19T15:29:03;25.90;76.80
39023;DHT22;25908;51.984;5.928;2022-08-19T15:31:30;25.90;77.60
39023;DHT22;25908;51.984;5.928;2022-08-19T15:34:00;25.90;78.80
39023;DHT22;25908;51.984;5.928;2022-08-19T15:36:26;25.90;79.50
39023;DHT22;25908;51.984;5.928;2022-08-19T15:38:52;25.90;80.50
39023;DHT22;25908;51.984;5.928;2022-08-19T15:41:22;25.90;80.50
39023;DHT22;25908;51.984;5.928;2022-08-19T15:43:50;25.90;80.80